sensor_id;sensor_type;location;lat;lon;timestamp;P1;durP1;ratioP1;P2;durP2;ratioP2
3177;SDS011;38141;42.666;23.344;2022-12-29T00:01:56;51.33;;;28.60;;
3177;SDS011;38141;42.666;23.344;2022-12-29T00:04:24;57.70;;;33.87;;
3177;SDS011;38141;42.666;23.344;2022-12-29T00:06:52;54.90;;;33.90;;
3177;SDS011;38141;42.666;23.344;2022-12-29T00:09:19;57.90;;;32.10;;
3177;SDS011;38141;42.666;23.344;2022-12-29T00:11:46;53.17;;;31.73;;
3177;SDS011;38141;42.666;23.344;2022-12-29T00:14:13;62.17;;;32.80;;
3177;SDS011;38141;42.666;23.344;2022-12-29T00:16:59;58.00;;;33.83;;
3177;SDS011;38141;42.666;23.344;2022-12-29T00:19:27;54.30;;;31.37;;
3177;SDS011;38141;42.666;23.344;2022-12-29T00:22:11;54.53;;;32.53;;
3177;SDS011;38141;42.666;23.344;2022-12-29T00:24:57;58.53;;;31.90;;
3177;SDS011;38141;42.666;23.344;2022-12-29T00:27:41;49.60;;;30.23;;
3177;SDS011;38141;42.666;23.344;2022-12-29T00:30:25;54.73;;;29.80;;
3177;SDS011;38141;42.666;23.344;2022-12-29T00:33:10;46.83;;;27.77;;
3177;SDS011;38141;42.666;23.344;2022-12-29T00:35:56;57.70;;;31.57;;
3177;SDS011;38141;42.666;23.344;2022-12-29T00:38:26;51.00;;;31.00;;
3177;SDS011;38141;42.666;23.344;2022-12-29T00:41:12;49.83;;;29.97;;
3177;SDS011;38141;42.666;23.344;2022-12-29T00:43:57;47.33;;;30.30;;
3177;SDS011;38141;42.666;23.344;2022-12-29T00:46:35;55.10;;;32.13;;
3177;SDS011;38141;42.666;23.344;2022-12-29T00:49:02;57.40;;;32.90;;
3177;SDS011;38141;42.666;23.344;2022-12-29T00:51:49;59.20;;;31.80;;
3177;SDS011;38141;42.666;23.344;2022-12-29T00:54:16;51.60;;;31.40;;
3177;SDS011;38141;42.666;23.344;2022-12-29T00:56:45;53.17;;;33.00;;
3177;SDS011;38141;42.666;23.344;2022-12-29T00:59:12;53.00;;;31.07;;
3177;SDS011;38141;42.666;23.344;2022-12-29T01:01:39;58.53;;;31.10;;
3177;SDS011;38141;42.666;23.344;2022-12-29T01:04:07;55.73;;;32.27;;
3177;SDS011;38141;42.666;23.344;2022-12-29T01:06:34;53.40;;;33.40;;
3177;SDS011;38141;42.666;23.344;2022-12-29T01:09:04;51.53;;;30.60;;
3177;SDS011;38141;42.666;23.344;2022-12-29T01:11:49;55.83;;;29.43;;
3177;SDS011;38141;42.666;23.344;2022-12-29T01:14:16;48.13;;;28.83;;
3177;SDS011;38141;42.666;23.344;2022-12-29T01:16:43;51.37;;;30.23;;
3177;SDS011;38141;42.666;23.344;2022-12-29T01:19:10;46.07;;;28.73;;
3177;SDS011;38141;42.666;23.344;2022-12-29T01:21:37;39.57;;;25.50;;
3177;SDS011;38141;42.666;23.344;2022-12-29T01:24:05;44.97;;;26.40;;
3177;SDS011;38141;42.666;23.344;2022-12-29T01:26:32;46.37;;;26.87;;
3177;SDS011;38141;42.666;23.344;2022-12-29T01:28:59;46.67;;;26.17;;
3177;SDS011;38141;42.666;23.344;2022-12-29T01:31:26;40.80;;;25.87;;
3177;SDS011;38141;42.666;23.344;2022-12-29T01:33:53;40.93;;;26.63;;
3177;SDS011;38141;42.666;23.344;2022-12-29T01:36:19;44.17;;;26.47;;
3177;SDS011;38141;42.666;23.344;2022-12-29T01:38:46;44.33;;;25.60;;
3177;SDS011;38141;42.666;23.344;2022-12-29T01:41:14;49.47;;;28.60;;
3177;SDS011;38141;42.666;23.344;2022-12-29T01:43:42;41.93;;;26.37;;
3177;SDS011;38141;42.666;23.344;2022-12-29T01:46:15;40.80;;;25.50;;
3177;SDS011;38141;42.666;23.344;2022-12-29T01:48:49;44.63;;;25.60;;
3177;SDS011;38141;42.666;23.344;2022-12-29T01:51:19;46.47;;;27.40;;
3177;SDS011;38141;42.666;23.344;2022-12-29T01:53:48;51.63;;;24.27;;
3177;SDS011;38141;42.666;23.344;2022-12-29T01:56:17;37.80;;;22.30;;
3177;SDS011;38141;42.666;23.344;2022-12-29T01:58:47;44.50;;;24.30;;
3177;SDS011;38141;42.666;23.344;2022-12-29T02:01:18;35.70;;;23.17;;
3177;SDS011;38141;42.666;23.344;2022-12-29T02:03:47;48.57;;;27.43;;
3177;SDS011;38141;42.666;23.344;2022-12-29T02:06:17;41.83;;;25.87;;
3177;SDS011;38141;42.666;23.344;2022-12-29T02:08:47;45.23;;;25.30;;
3177;SDS011;38141;42.666;23.344;2022-12-29T02:11:19;41.17;;;22.23;;
3177;SDS011;38141;42.666;23.344;2022-12-29T02:13:48;52.30;;;27.53;;
3177;SDS011;38141;42.666;23.344;2022-12-29T02:16:18;41.17;;;24.23;;
3177;SDS011;38141;42.666;23.344;2022-12-29T02:18:56;31.50;;;20.20;;
3177;SDS011;38141;42.666;23.344;2022-12-29T02:21:48;33.47;;;19.73;;
3177;SDS011;38141;42.666;23.344;2022-12-29T02:24:41;31.03;;;18.17;;
3177;SDS011;38141;42.666;23.344;2022-12-29T02:27:39;37.57;;;18.67;;
3177;SDS011;38141;42.666;23.344;2022-12-29T02:33:07;29.27;;;18.10;;
3177;SDS011;38141;42.666;23.344;2022-12-29T02:35:43;33.30;;;19.27;;
3177;SDS011;38141;42.666;23.344;2022-12-29T02:38:20;32.53;;;19.93;;
3177;SDS011;38141;42.666;23.344;2022-12-29T02:40:53;28.00;;;18.87;;
3177;SDS011;38141;42.666;23.344;2022-12-29T02:43:26;33.67;;;19.30;;
3177;SDS011;38141;42.666;23.344;2022-12-29T02:46:03;35.47;;;20.10;;
3177;SDS011;38141;42.666;23.344;2022-12-29T02:48:37;30.63;;;18.87;;
3177;SDS011;38141;42.666;23.344;2022-12-29T02:51:10;32.63;;;19.90;;
3177;SDS011;38141;42.666;23.344;2022-12-29T02:53:44;37.83;;;22.80;;
3177;SDS011;38141;42.666;23.344;2022-12-29T02:56:29;32.83;;;20.57;;
3177;SDS011;38141;42.666;23.344;2022-12-29T02:58:56;35.27;;;19.47;;
3177;SDS011;38141;42.666;23.344;2022-12-29T03:01:27;31.87;;;20.20;;
3177;SDS011;38141;42.666;23.344;2022-12-29T03:04:06;33.10;;;19.77;;
3177;SDS011;38141;42.666;23.344;2022-12-29T03:06:49;33.97;;;21.13;;
3177;SDS011;38141;42.666;23.344;2022-12-29T03:09:26;34.93;;;20.17;;
3177;SDS011;38141;42.666;23.344;2022-12-29T03:12:04;32.13;;;20.60;;
3177;SDS011;38141;42.666;23.344;2022-12-29T03:14:46;31.80;;;20.53;;
3177;SDS011;38141;42.666;23.344;2022-12-29T03:17:38;40.93;;;21.10;;
3177;SDS011;38141;42.666;23.344;2022-12-29T03:20:13;34.67;;;21.10;;
3177;SDS011;38141;42.666;23.344;2022-12-29T03:22:44;40.23;;;22.53;;
3177;SDS011;38141;42.666;23.344;2022-12-29T03:25:17;33.80;;;21.77;;
3177;SDS011;38141;42.666;23.344;2022-12-29T03:27:49;39.17;;;21.10;;
3177;SDS011;38141;42.666;23.344;2022-12-29T03:30:19;30.17;;;19.47;;
3177;SDS011;38141;42.666;23.344;2022-12-29T03:32:48;34.53;;;21.40;;
3177;SDS011;38141;42.666;23.344;2022-12-29T03:35:19;33.17;;;20.30;;
3177;SDS011;38141;42.666;23.344;2022-12-29T03:37:50;33.17;;;19.70;;
3177;SDS011;38141;42.666;23.344;2022-12-29T03:40:21;35.27;;;20.63;;
3177;SDS011;38141;42.666;23.344;2022-12-29T03:42:51;38.63;;;21.33;;
3177;SDS011;38141;42.666;23.344;2022-12-29T03:45:19;34.27;;;20.23;;
3177;SDS011;38141;42.666;23.344;2022-12-29T03:47:47;36.90;;;20.80;;
3177;SDS011;38141;42.666;23.344;2022-12-29T03:50:14;31.27;;;19.30;;
3177;SDS011;38141;42.666;23.344;2022-12-29T03:52:43;35.87;;;21.20;;
3177;SDS011;38141;42.666;23.344;2022-12-29T03:55:10;35.13;;;21.77;;
3177;SDS011;38141;42.666;23.344;2022-12-29T03:57:37;35.80;;;19.93;;
3177;SDS011;38141;42.666;23.344;2022-12-29T04:00:04;33.67;;;20.17;;
3177;SDS011;38141;42.666;23.344;2022-12-29T04:02:32;32.53;;;20.10;;
3177;SDS011;38141;42.666;23.344;2022-12-29T04:05:01;37.70;;;20.70;;
3177;SDS011;38141;42.666;23.344;2022-12-29T04:07:27;32.70;;;19.67;;
3177;SDS011;38141;42.666;23.344;2022-12-29T04:09:55;38.93;;;21.43;;
3177;SDS011;38141;42.666;23.344;2022-12-29T04:12:22;35.77;;;21.67;;
3177;SDS011;38141;42.666;23.344;2022-12-29T04:14:49;32.07;;;19.43;;
3177;SDS011;38141;42.666;23.344;2022-12-29T04:17:15;36.20;;;21.17;;
3177;SDS011;38141;42.666;23.344;2022-12-29T04:19:42;34.50;;;20.50;;
3177;SDS011;38141;42.666;23.344;2022-12-29T04:22:10;39.13;;;21.80;;
3177;SDS011;38141;42.666;23.344;2022-12-29T04:24:37;41.27;;;21.20;;
3177;SDS011;38141;42.666;23.344;2022-12-29T04:27:04;34.63;;;20.53;;
3177;SDS011;38141;42.666;23.344;2022-12-29T04:29:31;42.40;;;22.83;;
3177;SDS011;38141;42.666;23.344;2022-12-29T04:31:57;39.87;;;21.40;;
3177;SDS011;38141;42.666;23.344;2022-12-29T04:34:24;38.77;;;21.57;;
3177;SDS011;38141;42.666;23.344;2022-12-29T04:36:51;36.53;;;20.67;;
3177;SDS011;38141;42.666;23.344;2022-12-29T04:39:19;37.60;;;21.30;;
3177;SDS011;38141;42.666;23.344;2022-12-29T04:41:46;37.30;;;21.00;;
3177;SDS011;38141;42.666;23.344;2022-12-29T04:44:13;34.73;;;20.03;;
3177;SDS011;38141;42.666;23.344;2022-12-29T04:46:40;38.80;;;21.37;;
3177;SDS011;38141;42.666;23.344;2022-12-29T04:49:06;37.40;;;21.40;;
3177;SDS011;38141;42.666;23.344;2022-12-29T04:51:34;37.40;;;20.40;;
3177;SDS011;38141;42.666;23.344;2022-12-29T04:54:01;36.47;;;20.60;;
3177;SDS011;38141;42.666;23.344;2022-12-29T04:56:29;36.37;;;19.70;;
3177;SDS011;38141;42.666;23.344;2022-12-29T04:58:56;36.67;;;20.87;;
3177;SDS011;38141;42.666;23.344;2022-12-29T05:01:22;36.97;;;21.80;;
3177;SDS011;38141;42.666;23.344;2022-12-29T05:03:49;38.23;;;19.57;;
3177;SDS011;38141;42.666;23.344;2022-12-29T05:06:17;39.33;;;21.53;;
3177;SDS011;38141;42.666;23.344;2022-12-29T05:08:44;37.63;;;22.27;;
3177;SDS011;38141;42.666;23.344;2022-12-29T05:11:11;39.43;;;20.80;;
3177;SDS011;38141;42.666;23.344;2022-12-29T05:13:39;48.80;;;22.03;;
3177;SDS011;38141;42.666;23.344;2022-12-29T05:16:06;41.57;;;21.43;;
3177;SDS011;38141;42.666;23.344;2022-12-29T05:18:33;37.53;;;19.43;;
3177;SDS011;38141;42.666;23.344;2022-12-29T05:20:59;39.80;;;21.07;;
3177;SDS011;38141;42.666;23.344;2022-12-29T05:23:28;42.90;;;21.30;;
3177;SDS011;38141;42.666;23.344;2022-12-29T05:25:54;42.60;;;21.53;;
3177;SDS011;38141;42.666;23.344;2022-12-29T05:28:21;34.30;;;20.87;;
3177;SDS011;38141;42.666;23.344;2022-12-29T05:30:50;42.93;;;22.63;;
3177;SDS011;38141;42.666;23.344;2022-12-29T05:33:17;44.20;;;22.80;;
3177;SDS011;38141;42.666;23.344;2022-12-29T05:35:45;47.13;;;24.70;;
3177;SDS011;38141;42.666;23.344;2022-12-29T05:38:12;49.43;;;26.33;;
3177;SDS011;38141;42.666;23.344;2022-12-29T05:40:39;47.43;;;23.60;;
3177;SDS011;38141;42.666;23.344;2022-12-29T05:43:05;42.40;;;23.23;;
3177;SDS011;38141;42.666;23.344;2022-12-29T05:45:32;38.40;;;21.97;;
3177;SDS011;38141;42.666;23.344;2022-12-29T05:48:09;51.50;;;24.63;;
3177;SDS011;38141;42.666;23.344;2022-12-29T05:50:38;37.77;;;21.90;;
3177;SDS011;38141;42.666;23.344;2022-12-29T05:53:05;34.07;;;21.00;;
3177;SDS011;38141;42.666;23.344;2022-12-29T05:55:32;39.57;;;21.70;;
3177;SDS011;38141;42.666;23.344;2022-12-29T05:57:58;40.37;;;22.03;;
3177;SDS011;38141;42.666;23.344;2022-12-29T06:00:25;44.13;;;23.13;;
3177;SDS011;38141;42.666;23.344;2022-12-29T06:02:52;44.67;;;25.57;;
3177;SDS011;38141;42.666;23.344;2022-12-29T06:05:20;48.20;;;22.77;;
3177;SDS011;38141;42.666;23.344;2022-12-29T06:07:47;42.90;;;24.77;;
3177;SDS011;38141;42.666;23.344;2022-12-29T06:10:14;40.60;;;23.53;;
3177;SDS011;38141;42.666;23.344;2022-12-29T06:12:41;43.87;;;24.43;;
3177;SDS011;38141;42.666;23.344;2022-12-29T06:15:08;40.47;;;23.60;;
3177;SDS011;38141;42.666;23.344;2022-12-29T06:17:35;41.90;;;22.73;;
3177;SDS011;38141;42.666;23.344;2022-12-29T06:20:02;44.20;;;23.17;;
3177;SDS011;38141;42.666;23.344;2022-12-29T06:22:31;41.50;;;24.27;;
3177;SDS011;38141;42.666;23.344;2022-12-29T06:24:58;45.27;;;25.17;;
3177;SDS011;38141;42.666;23.344;2022-12-29T06:27:26;47.27;;;25.20;;
3177;SDS011;38141;42.666;23.344;2022-12-29T06:29:53;50.07;;;27.23;;
3177;SDS011;38141;42.666;23.344;2022-12-29T06:32:20;48.37;;;26.13;;
3177;SDS011;38141;42.666;23.344;2022-12-29T06:34:47;46.73;;;28.37;;
3177;SDS011;38141;42.666;23.344;2022-12-29T06:37:17;45.37;;;27.30;;
3177;SDS011;38141;42.666;23.344;2022-12-29T06:39:45;52.40;;;29.00;;
3177;SDS011;38141;42.666;23.344;2022-12-29T06:42:12;53.83;;;29.47;;
3177;SDS011;38141;42.666;23.344;2022-12-29T06:44:39;50.60;;;28.30;;
3177;SDS011;38141;42.666;23.344;2022-12-29T06:47:07;49.13;;;26.37;;
3177;SDS011;38141;42.666;23.344;2022-12-29T06:49:34;46.60;;;24.93;;
3177;SDS011;38141;42.666;23.344;2022-12-29T06:52:01;49.70;;;24.70;;
3177;SDS011;38141;42.666;23.344;2022-12-29T06:54:31;42.80;;;23.77;;
3177;SDS011;38141;42.666;23.344;2022-12-29T06:57:01;42.67;;;25.30;;
3177;SDS011;38141;42.666;23.344;2022-12-29T06:59:28;41.10;;;25.50;;
3177;SDS011;38141;42.666;23.344;2022-12-29T07:01:55;46.37;;;25.43;;
3177;SDS011;38141;42.666;23.344;2022-12-29T07:04:22;43.47;;;24.10;;
3177;SDS011;38141;42.666;23.344;2022-12-29T07:06:48;49.80;;;26.37;;
3177;SDS011;38141;42.666;23.344;2022-12-29T07:09:15;49.83;;;25.87;;
3177;SDS011;38141;42.666;23.344;2022-12-29T07:11:42;44.37;;;25.83;;
3177;SDS011;38141;42.666;23.344;2022-12-29T07:14:11;46.33;;;27.63;;
3177;SDS011;38141;42.666;23.344;2022-12-29T07:16:38;43.43;;;24.90;;
3177;SDS011;38141;42.666;23.344;2022-12-29T07:19:09;41.37;;;25.20;;
3177;SDS011;38141;42.666;23.344;2022-12-29T07:21:36;43.97;;;26.30;;
3177;SDS011;38141;42.666;23.344;2022-12-29T07:24:03;39.60;;;24.33;;
3177;SDS011;38141;42.666;23.344;2022-12-29T07:26:31;34.20;;;23.77;;
3177;SDS011;38141;42.666;23.344;2022-12-29T07:28:57;44.90;;;25.87;;
3177;SDS011;38141;42.666;23.344;2022-12-29T07:31:28;39.80;;;24.93;;
3177;SDS011;38141;42.666;23.344;2022-12-29T07:33:55;41.13;;;24.03;;
3177;SDS011;38141;42.666;23.344;2022-12-29T07:36:22;41.03;;;26.07;;
3177;SDS011;38141;42.666;23.344;2022-12-29T07:38:49;37.03;;;23.93;;
3177;SDS011;38141;42.666;23.344;2022-12-29T07:41:16;36.23;;;23.57;;
3177;SDS011;38141;42.666;23.344;2022-12-29T07:43:46;33.90;;;23.83;;
3177;SDS011;38141;42.666;23.344;2022-12-29T07:46:13;36.13;;;23.90;;
3177;SDS011;38141;42.666;23.344;2022-12-29T07:48:41;33.90;;;23.57;;
3177;SDS011;38141;42.666;23.344;2022-12-29T07:51:08;37.90;;;23.67;;
3177;SDS011;38141;42.666;23.344;2022-12-29T07:53:35;33.50;;;23.40;;
3177;SDS011;38141;42.666;23.344;2022-12-29T07:56:02;33.07;;;23.70;;
3177;SDS011;38141;42.666;23.344;2022-12-29T07:58:29;33.10;;;22.20;;
3177;SDS011;38141;42.666;23.344;2022-12-29T08:00:56;30.43;;;22.70;;
3177;SDS011;38141;42.666;23.344;2022-12-29T08:03:23;33.23;;;24.00;;
3177;SDS011;38141;42.666;23.344;2022-12-29T08:05:52;34.00;;;23.43;;
3177;SDS011;38141;42.666;23.344;2022-12-29T08:08:19;35.87;;;22.37;;
3177;SDS011;38141;42.666;23.344;2022-12-29T08:10:46;33.67;;;22.77;;
3177;SDS011;38141;42.666;23.344;2022-12-29T08:13:13;37.77;;;21.37;;
3177;SDS011;38141;42.666;23.344;2022-12-29T08:15:40;31.03;;;22.40;;
3177;SDS011;38141;42.666;23.344;2022-12-29T08:18:13;29.23;;;20.27;;
3177;SDS011;38141;42.666;23.344;2022-12-29T08:20:46;35.70;;;22.70;;
3177;SDS011;38141;42.666;23.344;2022-12-29T08:23:16;32.20;;;22.20;;
3177;SDS011;38141;42.666;23.344;2022-12-29T08:25:43;30.20;;;21.67;;
3177;SDS011;38141;42.666;23.344;2022-12-29T08:28:10;36.60;;;23.80;;
3177;SDS011;38141;42.666;23.344;2022-12-29T08:30:37;34.30;;;22.80;;
3177;SDS011;38141;42.666;23.344;2022-12-29T08:33:04;29.80;;;21.43;;
3177;SDS011;38141;42.666;23.344;2022-12-29T08:35:31;33.57;;;22.60;;
3177;SDS011;38141;42.666;23.344;2022-12-29T08:37:58;32.07;;;22.77;;
3177;SDS011;38141;42.666;23.344;2022-12-29T08:40:26;29.67;;;22.60;;
3177;SDS011;38141;42.666;23.344;2022-12-29T08:42:53;32.83;;;23.10;;
3177;SDS011;38141;42.666;23.344;2022-12-29T08:45:20;33.60;;;24.73;;
3177;SDS011;38141;42.666;23.344;2022-12-29T08:47:46;35.20;;;24.93;;
3177;SDS011;38141;42.666;23.344;2022-12-29T08:50:13;38.33;;;26.30;;
3177;SDS011;38141;42.666;23.344;2022-12-29T08:52:40;44.47;;;26.40;;
3177;SDS011;38141;42.666;23.344;2022-12-29T08:55:07;33.03;;;23.00;;
3177;SDS011;38141;42.666;23.344;2022-12-29T08:57:36;30.33;;;22.33;;
3177;SDS011;38141;42.666;23.344;2022-12-29T09:00:04;29.00;;;21.30;;
3177;SDS011;38141;42.666;23.344;2022-12-29T09:02:31;33.80;;;20.30;;
3177;SDS011;38141;42.666;23.344;2022-12-29T09:04:58;31.93;;;22.33;;
3177;SDS011;38141;42.666;23.344;2022-12-29T09:07:26;26.77;;;20.03;;
3177;SDS011;38141;42.666;23.344;2022-12-29T09:09:52;26.67;;;20.77;;
3177;SDS011;38141;42.666;23.344;2022-12-29T09:12:20;27.80;;;21.30;;
3177;SDS011;38141;42.666;23.344;2022-12-29T09:14:49;29.30;;;20.60;;
3177;SDS011;38141;42.666;23.344;2022-12-29T09:17:15;26.50;;;20.63;;
3177;SDS011;38141;42.666;23.344;2022-12-29T09:20:00;31.33;;;20.40;;
3177;SDS011;38141;42.666;23.344;2022-12-29T09:22:27;30.70;;;21.85;;
3177;SDS011;38141;42.666;23.344;2022-12-29T09:24:54;24.77;;;19.85;;
3177;SDS011;38141;42.666;23.344;2022-12-29T09:27:20;32.15;;;21.65;;
3177;SDS011;38141;42.666;23.344;2022-12-29T09:29:48;28.42;;;22.05;;
3177;SDS011;38141;42.666;23.344;2022-12-29T09:32:15;26.50;;;21.20;;
3177;SDS011;38141;42.666;23.344;2022-12-29T09:34:42;27.85;;;22.40;;
3177;SDS011;38141;42.666;23.344;2022-12-29T09:37:09;26.23;;;21.15;;
3177;SDS011;38141;42.666;23.344;2022-12-29T09:39:36;27.50;;;21.38;;
3177;SDS011;38141;42.666;23.344;2022-12-29T09:42:05;35.00;;;22.92;;
3177;SDS011;38141;42.666;23.344;2022-12-29T09:44:43;31.50;;;22.87;;
3177;SDS011;38141;42.666;23.344;2022-12-29T09:47:23;55.33;;;36.57;;
3177;SDS011;38141;42.666;23.344;2022-12-29T09:49:53;57.03;;;40.40;;
3177;SDS011;38141;42.666;23.344;2022-12-29T09:52:35;30.20;;;21.50;;
3177;SDS011;38141;42.666;23.344;2022-12-29T09:55:04;33.17;;;21.33;;
3177;SDS011;38141;42.666;23.344;2022-12-29T09:57:38;34.33;;;21.60;;
3177;SDS011;38141;42.666;23.344;2022-12-29T10:00:12;34.40;;;22.43;;
3177;SDS011;38141;42.666;23.344;2022-12-29T10:02:42;30.40;;;21.03;;
3177;SDS011;38141;42.666;23.344;2022-12-29T10:05:13;35.43;;;21.90;;
3177;SDS011;38141;42.666;23.344;2022-12-29T10:07:48;32.43;;;21.33;;
3177;SDS011;38141;42.666;23.344;2022-12-29T10:10:28;33.47;;;22.07;;
3177;SDS011;38141;42.666;23.344;2022-12-29T10:13:04;31.50;;;21.67;;
3177;SDS011;38141;42.666;23.344;2022-12-29T10:15:47;30.30;;;20.90;;
3177;SDS011;38141;42.666;23.344;2022-12-29T10:18:26;34.90;;;21.80;;
3177;SDS011;38141;42.666;23.344;2022-12-29T10:21:13;32.33;;;22.13;;
3177;SDS011;38141;42.666;23.344;2022-12-29T10:23:49;34.00;;;22.80;;
3177;SDS011;38141;42.666;23.344;2022-12-29T10:26:21;35.00;;;21.77;;
3177;SDS011;38141;42.666;23.344;2022-12-29T10:28:53;37.27;;;21.37;;
3177;SDS011;38141;42.666;23.344;2022-12-29T10:31:27;32.00;;;20.23;;
3177;SDS011;38141;42.666;23.344;2022-12-29T10:34:00;29.80;;;20.47;;
3177;SDS011;38141;42.666;23.344;2022-12-29T10:36:33;30.97;;;21.20;;
3177;SDS011;38141;42.666;23.344;2022-12-29T10:39:05;34.47;;;20.53;;
3177;SDS011;38141;42.666;23.344;2022-12-29T10:41:41;31.17;;;21.20;;
3177;SDS011;38141;42.666;23.344;2022-12-29T10:44:13;31.63;;;21.50;;
3177;SDS011;38141;42.666;23.344;2022-12-29T10:46:43;32.40;;;21.20;;
3177;SDS011;38141;42.666;23.344;2022-12-29T10:49:17;30.03;;;21.80;;
3177;SDS011;38141;42.666;23.344;2022-12-29T10:51:46;29.07;;;22.13;;
3177;SDS011;38141;42.666;23.344;2022-12-29T10:54:18;30.60;;;20.80;;
3177;SDS011;38141;42.666;23.344;2022-12-29T10:56:51;31.57;;;22.27;;
3177;SDS011;38141;42.666;23.344;2022-12-29T10:59:24;30.27;;;21.77;;
3177;SDS011;38141;42.666;23.344;2022-12-29T11:01:57;33.93;;;21.83;;
3177;SDS011;38141;42.666;23.344;2022-12-29T11:04:35;32.87;;;21.93;;
3177;SDS011;38141;42.666;23.344;2022-12-29T11:07:14;35.17;;;22.30;;
3177;SDS011;38141;42.666;23.344;2022-12-29T11:09:43;38.33;;;22.40;;
3177;SDS011;38141;42.666;23.344;2022-12-29T11:12:21;36.37;;;24.00;;
3177;SDS011;38141;42.666;23.344;2022-12-29T11:15:00;26.53;;;19.73;;
3177;SDS011;38141;42.666;23.344;2022-12-29T11:17:30;41.90;;;25.60;;
3177;SDS011;38141;42.666;23.344;2022-12-29T11:20:19;55.63;;;34.13;;
3177;SDS011;38141;42.666;23.344;2022-12-29T11:22:56;39.50;;;26.80;;
3177;SDS011;38141;42.666;23.344;2022-12-29T11:25:24;33.70;;;22.50;;
3177;SDS011;38141;42.666;23.344;2022-12-29T11:27:57;31.83;;;22.67;;
3177;SDS011;38141;42.666;23.344;2022-12-29T11:30:26;34.30;;;23.17;;
3177;SDS011;38141;42.666;23.344;2022-12-29T11:32:56;32.50;;;22.30;;
3177;SDS011;38141;42.666;23.344;2022-12-29T11:35:30;42.03;;;23.57;;
3177;SDS011;38141;42.666;23.344;2022-12-29T11:38:02;33.30;;;22.50;;
3177;SDS011;38141;42.666;23.344;2022-12-29T11:40:30;28.80;;;19.80;;
3177;SDS011;38141;42.666;23.344;2022-12-29T11:43:03;37.37;;;21.33;;
3177;SDS011;38141;42.666;23.344;2022-12-29T11:45:33;50.20;;;31.37;;
3177;SDS011;38141;42.666;23.344;2022-12-29T11:48:07;33.53;;;21.70;;
3177;SDS011;38141;42.666;23.344;2022-12-29T11:50:39;30.77;;;21.40;;
3177;SDS011;38141;42.666;23.344;2022-12-29T11:53:13;33.97;;;21.67;;
3177;SDS011;38141;42.666;23.344;2022-12-29T11:55:53;32.70;;;22.10;;
3177;SDS011;38141;42.666;23.344;2022-12-29T11:58:28;33.37;;;21.90;;
3177;SDS011;38141;42.666;23.344;2022-12-29T12:00:59;33.53;;;21.50;;
3177;SDS011;38141;42.666;23.344;2022-12-29T12:03:32;35.50;;;21.03;;
3177;SDS011;38141;42.666;23.344;2022-12-29T12:06:04;35.60;;;22.97;;
3177;SDS011;38141;42.666;23.344;2022-12-29T12:08:37;36.80;;;22.80;;
3177;SDS011;38141;42.666;23.344;2022-12-29T12:11:11;34.27;;;21.70;;
3177;SDS011;38141;42.666;23.344;2022-12-29T12:13:42;31.83;;;21.30;;
3177;SDS011;38141;42.666;23.344;2022-12-29T12:16:19;32.67;;;20.90;;
3177;SDS011;38141;42.666;23.344;2022-12-29T12:18:51;36.03;;;22.00;;
3177;SDS011;38141;42.666;23.344;2022-12-29T12:21:23;37.57;;;22.23;;
3177;SDS011;38141;42.666;23.344;2022-12-29T12:26:56;31.53;;;20.10;;
3177;SDS011;38141;42.666;23.344;2022-12-29T12:29:29;31.77;;;21.23;;
3177;SDS011;38141;42.666;23.344;2022-12-29T12:32:04;34.30;;;21.90;;
3177;SDS011;38141;42.666;23.344;2022-12-29T12:34:41;38.50;;;23.70;;
3177;SDS011;38141;42.666;23.344;2022-12-29T12:37:14;40.27;;;23.47;;
3177;SDS011;38141;42.666;23.344;2022-12-29T12:40:02;32.17;;;20.10;;
3177;SDS011;38141;42.666;23.344;2022-12-29T12:42:48;30.47;;;19.30;;
3177;SDS011;38141;42.666;23.344;2022-12-29T12:45:31;25.23;;;18.23;;
3177;SDS011;38141;42.666;23.344;2022-12-29T12:48:08;28.40;;;19.47;;
3177;SDS011;38141;42.666;23.344;2022-12-29T12:51:03;35.27;;;20.13;;
3177;SDS011;38141;42.666;23.344;2022-12-29T12:53:43;34.63;;;19.80;;
3177;SDS011;38141;42.666;23.344;2022-12-29T12:56:33;32.13;;;19.77;;
3177;SDS011;38141;42.666;23.344;2022-12-29T12:59:12;39.70;;;21.10;;
3177;SDS011;38141;42.666;23.344;2022-12-29T13:01:51;36.03;;;21.70;;
3177;SDS011;38141;42.666;23.344;2022-12-29T13:07:23;38.70;;;22.20;;
3177;SDS011;38141;42.666;23.344;2022-12-29T13:10:02;31.17;;;20.73;;
3177;SDS011;38141;42.666;23.344;2022-12-29T13:12:44;32.50;;;19.83;;
3177;SDS011;38141;42.666;23.344;2022-12-29T13:15:21;32.90;;;20.80;;
3177;SDS011;38141;42.666;23.344;2022-12-29T13:18:11;37.23;;;22.00;;
3177;SDS011;38141;42.666;23.344;2022-12-29T13:20:50;36.40;;;21.83;;
3177;SDS011;38141;42.666;23.344;2022-12-29T13:23:25;29.77;;;19.60;;
3177;SDS011;38141;42.666;23.344;2022-12-29T13:26:00;32.30;;;20.73;;
3177;SDS011;38141;42.666;23.344;2022-12-29T13:28:41;37.53;;;22.23;;
3177;SDS011;38141;42.666;23.344;2022-12-29T13:31:20;34.40;;;21.00;;
3177;SDS011;38141;42.666;23.344;2022-12-29T13:33:57;38.23;;;21.97;;
3177;SDS011;38141;42.666;23.344;2022-12-29T13:36:33;38.47;;;23.23;;
3177;SDS011;38141;42.666;23.344;2022-12-29T13:39:07;36.80;;;23.10;;
3177;SDS011;38141;42.666;23.344;2022-12-29T13:41:40;46.37;;;23.17;;
3177;SDS011;38141;42.666;23.344;2022-12-29T13:44:14;34.77;;;22.60;;
3177;SDS011;38141;42.666;23.344;2022-12-29T13:46:45;34.40;;;21.87;;
3177;SDS011;38141;42.666;23.344;2022-12-29T13:49:17;36.33;;;23.10;;
3177;SDS011;38141;42.666;23.344;2022-12-29T13:51:47;42.93;;;25.23;;
3177;SDS011;38141;42.666;23.344;2022-12-29T13:54:24;39.23;;;23.80;;
3177;SDS011;38141;42.666;23.344;2022-12-29T13:57:03;37.93;;;23.63;;
3177;SDS011;38141;42.666;23.344;2022-12-29T13:59:41;40.90;;;24.40;;
3177;SDS011;38141;42.666;23.344;2022-12-29T14:02:17;38.33;;;23.20;;
3177;SDS011;38141;42.666;23.344;2022-12-29T14:04:57;40.10;;;24.03;;
3177;SDS011;38141;42.666;23.344;2022-12-29T14:07:25;40.60;;;24.40;;
3177;SDS011;38141;42.666;23.344;2022-12-29T14:09:54;40.67;;;25.70;;
3177;SDS011;38141;42.666;23.344;2022-12-29T14:12:30;42.47;;;25.00;;
3177;SDS011;38141;42.666;23.344;2022-12-29T14:15:03;45.60;;;28.00;;
3177;SDS011;38141;42.666;23.344;2022-12-29T14:17:32;38.40;;;23.10;;
3177;SDS011;38141;42.666;23.344;2022-12-29T14:19:59;43.70;;;24.70;;
3177;SDS011;38141;42.666;23.344;2022-12-29T14:22:27;38.33;;;24.50;;
3177;SDS011;38141;42.666;23.344;2022-12-29T14:24:56;42.60;;;23.57;;
3177;SDS011;38141;42.666;23.344;2022-12-29T14:33:26;40.43;;;23.93;;
3177;SDS011;38141;42.666;23.344;2022-12-29T14:35:54;41.33;;;24.00;;
3177;SDS011;38141;42.666;23.344;2022-12-29T14:38:26;46.60;;;24.30;;
3177;SDS011;38141;42.666;23.344;2022-12-29T14:43:59;48.50;;;26.63;;
3177;SDS011;38141;42.666;23.344;2022-12-29T14:46:48;42.83;;;23.10;;
3177;SDS011;38141;42.666;23.344;2022-12-29T14:49:22;45.37;;;22.27;;
3177;SDS011;38141;42.666;23.344;2022-12-29T14:51:51;36.00;;;21.00;;
3177;SDS011;38141;42.666;23.344;2022-12-29T14:57:20;36.33;;;20.03;;
3177;SDS011;38141;42.666;23.344;2022-12-29T14:59:57;42.20;;;22.17;;
3177;SDS011;38141;42.666;23.344;2022-12-29T15:02:32;32.60;;;20.87;;
3177;SDS011;38141;42.666;23.344;2022-12-29T15:05:03;37.40;;;21.33;;
3177;SDS011;38141;42.666;23.344;2022-12-29T15:07:31;36.37;;;20.80;;